sensor_id;sensor_type;location;lat;lon;timestamp;P1;durP1;ratioP1;P2;durP2;ratioP2
42260;SDS011;27926;48.062;7.474;2022-09-03T03:53:16;2.38;;;1.92;;
42260;SDS011;27926;48.062;7.474;2022-09-03T06:19:23;3.65;;;2.65;;
42260;SDS011;27926;48.062;7.474;2022-09-03T06:21:48;8.85;;;2.70;;
42260;SDS011;27926;48.062;7.474;2022-09-03T06:27:41;10.05;;;2.65;;
42260;SDS011;27926;48.062;7.474;2022-09-03T06:33:01;6.82;;;3.13;;
42260;SDS011;27926;48.062;7.474;2022-09-03T06:35:51;7.35;;;2.55;;
42260;SDS011;27926;48.062;7.474;2022-09-03T06:38:20;2.88;;;2.42;;
42260;SDS011;27926;48.062;7.474;2022-09-03T06:40:50;5.13;;;2.95;;
42260;SDS011;27926;48.062;7.474;2022-09-03T06:43:15;3.78;;;2.33;;
42260;SDS011;27926;48.062;7.474;2022-09-03T06:45:40;4.88;;;2.38;;
42260;SDS011;27926;48.062;7.474;2022-09-03T06:48:04;4.15;;;2.42;;
42260;SDS011;27926;48.062;7.474;2022-09-03T06:50:29;3.17;;;2.13;;
42260;SDS011;27926;48.062;7.474;2022-09-03T06:52:56;2.88;;;2.15;;
42260;SDS011;27926;48.062;7.474;2022-09-03T06:55:21;4.50;;;2.53;;
42260;SDS011;27926;48.062;7.474;2022-09-03T06:57:46;5.17;;;2.23;;
42260;SDS011;27926;48.062;7.474;2022-09-03T07:00:10;4.10;;;2.43;;
42260;SDS011;27926;48.062;7.474;2022-09-03T07:02:37;2.97;;;1.73;;
42260;SDS011;27926;48.062;7.474;2022-09-03T07:05:02;4.63;;;2.05;;
42260;SDS011;27926;48.062;7.474;2022-09-03T07:07:27;5.70;;;1.90;;
42260;SDS011;27926;48.062;7.474;2022-09-03T07:09:51;5.68;;;2.25;;
42260;SDS011;27926;48.062;7.474;2022-09-03T07:12:16;4.53;;;2.03;;
42260;SDS011;27926;48.062;7.474;2022-09-03T07:14:45;2.22;;;1.95;;
42260;SDS011;27926;48.062;7.474;2022-09-03T07:17:10;3.05;;;1.88;;
42260;SDS011;27926;48.062;7.474;2022-09-03T07:19:34;10.00;;;2.37;;
42260;SDS011;27926;48.062;7.474;2022-09-03T07:21:59;2.50;;;2.08;;
42260;SDS011;27926;48.062;7.474;2022-09-03T07:24:24;2.55;;;2.13;;
42260;SDS011;27926;48.062;7.474;2022-09-03T07:26:50;3.80;;;1.95;;
42260;SDS011;27926;48.062;7.474;2022-09-03T07:29:15;8.87;;;1.90;;
42260;SDS011;27926;48.062;7.474;2022-09-03T07:31:43;2.70;;;2.00;;
42260;SDS011;27926;48.062;7.474;2022-09-03T07:34:08;7.40;;;2.03;;
42260;SDS011;27926;48.062;7.474;2022-09-03T07:36:44;5.88;;;1.70;;
42260;SDS011;27926;48.062;7.474;2022-09-03T07:39:11;2.38;;;1.85;;
42260;SDS011;27926;48.062;7.474;2022-09-03T07:41:36;2.67;;;1.63;;
42260;SDS011;27926;48.062;7.474;2022-09-03T07:44:02;2.73;;;1.80;;
42260;SDS011;27926;48.062;7.474;2022-09-03T07:46:28;2.63;;;1.60;;
42260;SDS011;27926;48.062;7.474;2022-09-03T07:48:54;3.03;;;1.80;;
42260;SDS011;27926;48.062;7.474;2022-09-03T07:51:21;2.78;;;1.80;;
42260;SDS011;27926;48.062;7.474;2022-09-03T07:53:50;5.40;;;2.25;;
42260;SDS011;27926;48.062;7.474;2022-09-03T07:56:17;2.22;;;1.45;;
42260;SDS011;27926;48.062;7.474;2022-09-03T07:58:42;4.70;;;1.63;;
42260;SDS011;27926;48.062;7.474;2022-09-03T08:01:07;1.60;;;1.50;;
42260;SDS011;27926;48.062;7.474;2022-09-03T08:03:34;1.70;;;1.50;;
42260;SDS011;27926;48.062;7.474;2022-09-03T08:06:03;1.80;;;1.65;;
42260;SDS011;27926;48.062;7.474;2022-09-03T08:08:30;1.58;;;1.10;;
42260;SDS011;27926;48.062;7.474;2022-09-03T08:11:06;2.10;;;1.42;;
42260;SDS011;27926;48.062;7.474;2022-09-03T08:13:33;5.03;;;1.75;;
42260;SDS011;27926;48.062;7.474;2022-09-03T08:15:58;1.67;;;1.27;;
42260;SDS011;27926;48.062;7.474;2022-09-03T08:18:24;5.53;;;1.85;;
42260;SDS011;27926;48.062;7.474;2022-09-03T08:23:14;1.52;;;1.42;;
42260;SDS011;27926;48.062;7.474;2022-09-03T08:25:39;2.70;;;1.33;;
42260;SDS011;27926;48.062;7.474;2022-09-03T08:28:04;2.83;;;1.33;;
42260;SDS011;27926;48.062;7.474;2022-09-03T08:30:28;4.70;;;1.50;;
42260;SDS011;27926;48.062;7.474;2022-09-03T08:32:53;3.33;;;1.80;;
42260;SDS011;27926;48.062;7.474;2022-09-03T08:35:18;2.67;;;1.20;;
42260;SDS011;27926;48.062;7.474;2022-09-03T08:37:44;1.58;;;1.25;;
42260;SDS011;27926;48.062;7.474;2022-09-03T08:40:12;1.40;;;1.30;;
42260;SDS011;27926;48.062;7.474;2022-09-03T08:45:18;2.13;;;1.77;;
42260;SDS011;27926;48.062;7.474;2022-09-03T08:47:48;2.95;;;1.38;;
42260;SDS011;27926;48.062;7.474;2022-09-03T08:50:25;3.92;;;1.67;;
42260;SDS011;27926;48.062;7.474;2022-09-03T08:58:16;2.20;;;1.35;;
42260;SDS011;27926;48.062;7.474;2022-09-03T09:00:51;5.18;;;2.05;;
42260;SDS011;27926;48.062;7.474;2022-09-03T09:14:42;4.68;;;1.80;;
42260;SDS011;27926;48.062;7.474;2022-09-03T09:17:24;1.58;;;1.27;;
42260;SDS011;27926;48.062;7.474;2022-09-03T09:20:02;1.98;;;1.52;;
42260;SDS011;27926;48.062;7.474;2022-09-03T09:22:53;1.63;;;1.40;;
42260;SDS011;27926;48.062;7.474;2022-09-03T09:25:24;2.38;;;1.65;;
42260;SDS011;27926;48.062;7.474;2022-09-03T09:27:50;2.63;;;1.38;;
42260;SDS011;27926;48.062;7.474;2022-09-03T09:30:18;1.65;;;1.25;;
42260;SDS011;27926;48.062;7.474;2022-09-03T09:32:43;4.20;;;1.58;;
42260;SDS011;27926;48.062;7.474;2022-09-03T09:35:10;2.42;;;1.33;;
42260;SDS011;27926;48.062;7.474;2022-09-03T09:37:45;2.13;;;1.53;;
42260;SDS011;27926;48.062;7.474;2022-09-03T09:40:36;1.92;;;1.50;;
42260;SDS011;27926;48.062;7.474;2022-09-03T09:43:05;2.90;;;1.58;;
42260;SDS011;27926;48.062;7.474;2022-09-03T09:45:43;1.27;;;1.17;;
42260;SDS011;27926;48.062;7.474;2022-09-03T09:48:14;3.13;;;2.30;;
42260;SDS011;27926;48.062;7.474;2022-09-03T09:50:41;3.70;;;1.58;;
42260;SDS011;27926;48.062;7.474;2022-09-03T09:53:07;5.90;;;1.10;;
42260;SDS011;27926;48.062;7.474;2022-09-03T09:55:47;14.68;;;0.80;;
42260;SDS011;27926;48.062;7.474;2022-09-03T09:58:22;0.30;;;0.30;;
42260;SDS011;27926;48.062;7.474;2022-09-03T10:01:00;3.28;;;0.80;;
42260;SDS011;27926;48.062;7.474;2022-09-03T10:03:26;1.23;;;0.40;;
42260;SDS011;27926;48.062;7.474;2022-09-03T10:06:00;0.73;;;0.50;;
42260;SDS011;27926;48.062;7.474;2022-09-03T10:08:47;2.28;;;0.90;;
42260;SDS011;27926;48.062;7.474;2022-09-03T10:11:12;3.20;;;0.80;;
42260;SDS011;27926;48.062;7.474;2022-09-03T10:13:41;2.22;;;1.00;;
42260;SDS011;27926;48.062;7.474;2022-09-03T10:22:19;4.10;;;0.63;;
42260;SDS011;27926;48.062;7.474;2022-09-03T10:28:07;5.78;;;0.80;;
42260;SDS011;27926;48.062;7.474;2022-09-03T10:30:37;2.28;;;0.70;;
42260;SDS011;27926;48.062;7.474;2022-09-03T10:47:31;6.13;;;0.40;;
42260;SDS011;27926;48.062;7.474;2022-09-03T10:50:16;0.45;;;0.40;;
42260;SDS011;27926;48.062;7.474;2022-09-03T10:55:40;1.35;;;0.40;;
42260;SDS011;27926;48.062;7.474;2022-09-03T11:06:51;2.40;;;0.43;;
42260;SDS011;27926;48.062;7.474;2022-09-03T11:12:31;2.60;;;0.50;;
42260;SDS011;27926;48.062;7.474;2022-09-03T11:15:02;3.08;;;0.77;;
42260;SDS011;27926;48.062;7.474;2022-09-03T11:17:35;1.80;;;0.73;;
42260;SDS011;27926;48.062;7.474;2022-09-03T11:20:16;4.13;;;0.90;;
42260;SDS011;27926;48.062;7.474;2022-09-03T11:22:43;0.98;;;0.85;;
42260;SDS011;27926;48.062;7.474;2022-09-03T11:25:10;3.30;;;0.98;;
42260;SDS011;27926;48.062;7.474;2022-09-03T11:30:12;2.63;;;0.80;;
42260;SDS011;27926;48.062;7.474;2022-09-03T11:32:49;0.90;;;0.70;;
42260;SDS011;27926;48.062;7.474;2022-09-03T11:35:59;1.95;;;0.75;;
42260;SDS011;27926;48.062;7.474;2022-09-03T11:45:47;1.00;;;0.70;;
42260;SDS011;27926;48.062;7.474;2022-09-03T11:51:28;9.88;;;1.13;;
42260;SDS011;27926;48.062;7.474;2022-09-03T11:54:44;1.10;;;0.40;;
42260;SDS011;27926;48.062;7.474;2022-09-03T11:56:46;1.90;;;0.55;;
42260;SDS011;27926;48.062;7.474;2022-09-03T12:01:37;0.63;;;0.50;;
42260;SDS011;27926;48.062;7.474;2022-09-03T12:04:09;2.40;;;0.63;;
42260;SDS011;27926;48.062;7.474;2022-09-03T12:06:44;0.40;;;0.40;;
42260;SDS011;27926;48.062;7.474;2022-09-03T12:18:07;0.60;;;0.50;;
42260;SDS011;27926;48.062;7.474;2022-09-03T12:20:46;0.60;;;0.60;;
42260;SDS011;27926;48.062;7.474;2022-09-03T12:23:27;0.93;;;0.60;;
42260;SDS011;27926;48.062;7.474;2022-09-03T12:26:08;2.08;;;0.70;;
42260;SDS011;27926;48.062;7.474;2022-09-03T12:28:37;1.60;;;0.60;;
42260;SDS011;27926;48.062;7.474;2022-09-03T12:31:21;2.83;;;0.90;;
42260;SDS011;27926;48.062;7.474;2022-09-03T12:34:00;2.08;;;0.57;;
42260;SDS011;27926;48.062;7.474;2022-09-03T12:36:48;1.38;;;0.77;;
42260;SDS011;27926;48.062;7.474;2022-09-03T12:39:13;0.73;;;0.63;;
42260;SDS011;27926;48.062;7.474;2022-09-03T12:44:37;1.40;;;0.50;;
42260;SDS011;27926;48.062;7.474;2022-09-03T12:47:06;1.17;;;0.60;;
42260;SDS011;27926;48.062;7.474;2022-09-03T12:49:38;1.75;;;0.50;;
42260;SDS011;27926;48.062;7.474;2022-09-03T12:52:10;2.63;;;1.00;;
42260;SDS011;27926;48.062;7.474;2022-09-03T12:54:43;0.50;;;0.50;;
42260;SDS011;27926;48.062;7.474;2022-09-03T13:00:45;1.67;;;0.70;;
42260;SDS011;27926;48.062;7.474;2022-09-03T13:05:58;2.03;;;0.60;;
42260;SDS011;27926;48.062;7.474;2022-09-03T13:08:31;1.10;;;0.80;;
42260;SDS011;27926;48.062;7.474;2022-09-03T13:11:01;1.10;;;0.60;;
42260;SDS011;27926;48.062;7.474;2022-09-03T13:13:34;0.73;;;0.70;;
42260;SDS011;27926;48.062;7.474;2022-09-03T13:16:05;1.75;;;0.55;;
42260;SDS011;27926;48.062;7.474;2022-09-03T13:21:32;0.47;;;0.43;;
42260;SDS011;27926;48.062;7.474;2022-09-03T13:30:08;2.72;;;0.77;;
42260;SDS011;27926;48.062;7.474;2022-09-03T13:35:39;0.50;;;0.50;;
42260;SDS011;27926;48.062;7.474;2022-09-03T13:43:23;2.50;;;0.93;;
42260;SDS011;27926;48.062;7.474;2022-09-03T13:45:54;2.55;;;0.85;;
42260;SDS011;27926;48.062;7.474;2022-09-03T13:48:25;0.45;;;0.45;;
42260;SDS011;27926;48.062;7.474;2022-09-03T14:07:24;0.53;;;0.50;;
42260;SDS011;27926;48.062;7.474;2022-09-03T14:15:47;0.43;;;0.43;;
42260;SDS011;27926;48.062;7.474;2022-09-03T14:18:28;0.50;;;0.50;;
42260;SDS011;27926;48.062;7.474;2022-09-03T14:21:21;0.93;;;0.80;;
42260;SDS011;27926;48.062;7.474;2022-09-03T14:26:49;1.58;;;0.90;;
42260;SDS011;27926;48.062;7.474;2022-09-03T14:29:23;2.30;;;1.10;;
42260;SDS011;27926;48.062;7.474;2022-09-03T14:39:53;2.33;;;0.65;;
42260;SDS011;27926;48.062;7.474;2022-09-03T14:48:05;0.98;;;0.50;;
42260;SDS011;27926;48.062;7.474;2022-09-03T15:10:58;2.45;;;0.85;;
42260;SDS011;27926;48.062;7.474;2022-09-03T15:13:45;1.30;;;0.80;;
42260;SDS011;27926;48.062;7.474;2022-09-03T15:27:14;1.95;;;1.00;;
42260;SDS011;27926;48.062;7.474;2022-09-03T15:30:05;1.25;;;0.82;;
42260;SDS011;27926;48.062;7.474;2022-09-03T15:32:41;4.95;;;1.00;;
42260;SDS011;27926;48.062;7.474;2022-09-03T15:35:26;0.77;;;0.77;;
42260;SDS011;27926;48.062;7.474;2022-09-03T15:37:54;0.93;;;0.85;;
42260;SDS011;27926;48.062;7.474;2022-09-03T15:40:30;0.77;;;0.70;;
42260;SDS011;27926;48.062;7.474;2022-09-03T15:43:18;2.33;;;0.90;;
42260;SDS011;27926;48.062;7.474;2022-09-03T15:51:26;0.65;;;0.60;;
42260;SDS011;27926;48.062;7.474;2022-09-03T15:56:33;1.15;;;0.90;;
42260;SDS011;27926;48.062;7.474;2022-09-03T15:59:02;0.73;;;0.73;;
42260;SDS011;27926;48.062;7.474;2022-09-03T16:01:39;1.27;;;0.90;;
42260;SDS011;27926;48.062;7.474;2022-09-03T16:10:19;1.63;;;0.93;;
42260;SDS011;27926;48.062;7.474;2022-09-03T16:12:55;1.63;;;0.90;;
42260;SDS011;27926;48.062;7.474;2022-09-03T16:15:50;1.40;;;1.27;;
42260;SDS011;27926;48.062;7.474;2022-09-03T16:18:26;0.80;;;0.80;;
42260;SDS011;27926;48.062;7.474;2022-09-03T16:21:00;0.60;;;0.60;;
42260;SDS011;27926;48.062;7.474;2022-09-03T16:29:24;1.05;;;0.98;;
42260;SDS011;27926;48.062;7.474;2022-09-03T16:31:54;1.38;;;0.80;;
42260;SDS011;27926;48.062;7.474;2022-09-03T16:37:27;6.07;;;1.30;;
42260;SDS011;27926;48.062;7.474;2022-09-03T16:40:17;1.73;;;1.30;;
42260;SDS011;27926;48.062;7.474;2022-09-03T16:48:19;4.00;;;1.30;;
42260;SDS011;27926;48.062;7.474;2022-09-03T16:53:38;1.60;;;1.17;;
42260;SDS011;27926;48.062;7.474;2022-09-03T16:56:43;1.75;;;0.90;;
42260;SDS011;27926;48.062;7.474;2022-09-03T17:10:51;1.13;;;0.95;;
42260;SDS011;27926;48.062;7.474;2022-09-03T17:16:41;1.20;;;0.90;;
42260;SDS011;27926;48.062;7.474;2022-09-03T17:19:34;3.22;;;1.00;;
42260;SDS011;27926;48.062;7.474;2022-09-03T17:24:54;1.67;;;1.05;;
42260;SDS011;27926;48.062;7.474;2022-09-03T17:32:49;2.67;;;1.40;;
42260;SDS011;27926;48.062;7.474;2022-09-03T17:36:09;2.97;;;1.20;;
42260;SDS011;27926;48.062;7.474;2022-09-03T17:41:41;1.60;;;1.05;;
42260;SDS011;27926;48.062;7.474;2022-09-03T17:49:55;4.55;;;1.20;;
42260;SDS011;27926;48.062;7.474;2022-09-03T17:55:20;1.25;;;0.80;;
42260;SDS011;27926;48.062;7.474;2022-09-03T17:58:07;1.42;;;1.30;;
42260;SDS011;27926;48.062;7.474;2022-09-03T18:00:58;2.90;;;1.40;;
42260;SDS011;27926;48.062;7.474;2022-09-03T18:05:56;2.60;;;1.40;;
42260;SDS011;27926;48.062;7.474;2022-09-03T18:08:45;1.52;;;1.25;;
42260;SDS011;27926;48.062;7.474;2022-09-03T18:11:27;2.28;;;1.00;;
42260;SDS011;27926;48.062;7.474;2022-09-03T18:13:57;2.33;;;0.88;;
42260;SDS011;27926;48.062;7.474;2022-09-03T18:16:25;1.50;;;1.30;;
42260;SDS011;27926;48.062;7.474;2022-09-03T18:18:51;2.58;;;1.45;;
42260;SDS011;27926;48.062;7.474;2022-09-03T18:21:23;1.52;;;1.10;;
42260;SDS011;27926;48.062;7.474;2022-09-03T18:27:02;3.05;;;1.35;;
42260;SDS011;27926;48.062;7.474;2022-09-03T18:30:04;2.80;;;1.20;;
42260;SDS011;27926;48.062;7.474;2022-09-03T18:33:03;1.75;;;0.85;;
42260;SDS011;27926;48.062;7.474;2022-09-03T18:35:46;1.20;;;1.10;;
42260;SDS011;27926;48.062;7.474;2022-09-03T18:38:30;1.50;;;1.00;;
42260;SDS011;27926;48.062;7.474;2022-09-03T18:56:47;1.90;;;1.17;;
42260;SDS011;27926;48.062;7.474;2022-09-03T19:15:20;1.95;;;1.20;;
42260;SDS011;27926;48.062;7.474;2022-09-03T19:18:08;1.35;;;1.15;;
42260;SDS011;27926;48.062;7.474;2022-09-03T19:21:04;1.75;;;1.35;;
42260;SDS011;27926;48.062;7.474;2022-09-03T19:24:10;1.33;;;1.23;;
42260;SDS011;27926;48.062;7.474;2022-09-03T19:32:29;3.85;;;1.40;;
42260;SDS011;27926;48.062;7.474;2022-09-03T19:53:14;1.73;;;1.17;;
42260;SDS011;27926;48.062;7.474;2022-09-03T22:31:54;2.20;;;1.48;;
42260;SDS011;27926;48.062;7.474;2022-09-03T23:26:59;4.70;;;2.28;;
42260;SDS011;27926;48.062;7.474;2022-09-03T23:30:13;3.22;;;1.75;;
